Time;durP1;ratioP1;P1;durP2;ratioP2;P2;SDS_P1;SDS_P2;PMS_P1;PMS_P2;Temp;Humidity;BMP_temperature;BMP_pressure;BME280_temperature;BME280_humidity;BME280_pressure;Samples;Min_cycle;Max_cycle;Signal;HPM_P1;HPM_P2
2024/04/24 00:02:19;;;;;;;;;;;6.00;99.90;;;;;;5454620;26;19929;-79
2024/04/24 00:04:46;;;;;;;;;;;5.90;99.90;;;;;;5454240;26;19928;-79
2024/04/24 00:07:15;;;;;;;;;;;5.90;99.90;;;;;;5454523;26;20333;-79
2024/04/24 00:09:44;;;;;;;;;;;5.90;99.90;;;;;;5459491;26;20360;-79
2024/04/24 00:12:13;;;;;;;;;;;6.00;99.90;;;;;;5424396;26;19993;-78
2024/04/24 00:14:40;;;;;;;;;;;6.10;99.90;;;;;;5394662;26;19928;-79
2024/04/24 00:17:07;;;;;;;;;;;6.10;99.90;;;;;;5423917;26;19936;-78
2024/04/24 00:19:33;;;;;;;;;;;6.10;99.90;;;;;;5452005;26;19935;-78
2024/04/24 00:22:01;;;;;;;;;;;6.20;99.90;;;;;;5394603;26;20350;-79
2024/04/24 00:24:27;;;;;;;;;;;6.20;99.90;;;;;;5438190;26;19928;-78
2024/04/24 00:26:53;;;;;;;;;;;6.20;99.90;;;;;;5411941;26;20344;-78
2024/04/24 00:29:23;;;;;;;;;;;6.20;99.90;;;;;;5489861;26;19928;-78
2024/04/24 00:31:50;;;;;;;;;;;6.10;99.90;;;;;;5459764;26;19932;-80
2024/04/24 00:34:17;;;;;;;;;;;6.20;99.90;;;;;;5423489;26;20336;-79
2024/04/24 00:36:50;;;;;;;;;;;6.20;99.90;;;;;;5441440;26;19933;-79
2024/04/24 00:39:19;;;;;;;;;;;5.90;99.90;;;;;;5449901;26;19935;-79
2024/04/24 00:41:46;;;;;;;;;;;6.30;99.90;;;;;;5487330;26;19952;-79
2024/04/24 00:44:13;;;;;;;;;;;6.20;99.90;;;;;;5454960;26;19944;-79
2024/04/24 00:46:39;;;;;;;;;;;6.20;99.90;;;;;;5439058;26;19993;-80
2024/04/24 00:49:07;;;;;;;;;;;6.20;99.90;;;;;;5490783;26;19952;-80
2024/04/24 00:51:40;;;;;;;;;;;6.20;99.90;;;;;;5468762;26;19936;-80
2024/04/24 00:54:06;;;;;;;;;;;6.20;99.90;;;;;;5454962;26;20008;-80
2024/04/24 00:56:34;;;;;;;;;;;6.20;99.90;;;;;;5394745;26;19937;-79
2024/04/24 00:59:03;;;;;;;;;;;6.20;99.90;;;;;;5445977;26;19934;-79
2024/04/24 01:01:31;;;;;;;;;;;6.10;99.90;;;;;;5453677;26;19929;-79
2024/04/24 01:04:00;;;;;;;;;;;5.90;99.90;;;;;;5423670;26;19935;-79
2024/04/24 01:06:29;;;;;;;;;;;6.00;99.90;;;;;;5422889;26;19929;-81
2024/04/24 01:08:56;;;;;;;;;;;6.10;99.90;;;;;;5423121;26;19936;-79
2024/04/24 01:11:25;;;;;;;;;;;6.10;99.90;;;;;;5443858;26;19929;-79
2024/04/24 01:13:51;;;;;;;;;;;6.20;99.90;;;;;;5432567;26;19936;-79
2024/04/24 01:16:23;;;;;;;;;;;6.10;99.90;;;;;;5434585;26;20243;-79
2024/04/24 01:18:51;;;;;;;;;;;6.10;99.90;;;;;;5450974;26;20229;-79
2024/04/24 01:21:24;;;;;;;;;;;6.00;99.90;;;;;;5453009;26;19936;-79
2024/04/24 01:24:01;;;;;;;;;;;6.10;99.90;;;;;;5391895;26;19995;-79
2024/04/24 01:26:42;;;;;;;;;;;6.10;99.90;;;;;;5452137;26;20337;-79
2024/04/24 01:29:15;;;;;;;;;;;6.10;99.90;;;;;;5429677;26;19929;-79
2024/04/24 01:31:46;;;;;;;;;;;6.10;99.90;;;;;;5385788;26;19929;-79
2024/04/24 01:34:13;;;;;;;;;;;5.90;99.90;;;;;;5440828;26;19929;-79
2024/04/24 01:36:42;;;;;;;;;;;5.80;99.90;;;;;;5444396;26;19929;-79
2024/04/24 01:39:09;;;;;;;;;;;5.80;99.90;;;;;;5446017;26;19952;-79
2024/04/24 01:41:36;;;;;;;;;;;5.70;99.90;;;;;;5450336;26;19998;-79
2024/04/24 01:44:03;;;;;;;;;;;5.70;99.90;;;;;;5431714;26;19929;-79
2024/04/24 01:46:30;;;;;;;;;;;5.70;99.90;;;;;;5422766;26;19936;-79
2024/04/24 01:48:56;;;;;;;;;;;5.70;99.90;;;;;;5423287;26;19953;-79
2024/04/24 01:51:23;;;;;;;;;;;5.70;99.90;;;;;;5475480;26;19929;-79
2024/04/24 01:53:55;;;;;;;;;;;5.60;99.90;;;;;;5433462;26;19929;-79
2024/04/24 01:56:24;;;;;;;;;;;5.60;99.90;;;;;;5445469;26;19937;-79
2024/04/24 01:58:58;;;;;;;;;;;5.50;99.90;;;;;;5426402;26;19929;-79
2024/04/24 02:01:27;;;;;;;;;;;5.50;99.90;;;;;;5415310;26;19936;-78
2024/04/24 02:03:56;;;;;;;;;;;5.50;99.90;;;;;;5445096;26;20489;-79
2024/04/24 02:06:26;;;;;;;;;;;5.50;99.90;;;;;;5445444;26;19929;-79
2024/04/24 02:08:53;;;;;;;;;;;5.40;99.90;;;;;;5428823;26;19935;-79
2024/04/24 02:11:20;;;;;;;;;;;5.40;99.90;;;;;;5444326;26;20369;-79
2024/04/24 02:13:47;;;;;;;;;;;5.30;99.90;;;;;;5415154;26;19929;-79
2024/04/24 02:16:13;;;;;;;;;;;5.30;99.90;;;;;;5438548;26;20260;-79
2024/04/24 02:18:41;;;;;;;;;;;5.30;99.90;;;;;;5450611;26;19944;-79
2024/04/24 02:21:12;;;;;;;;;;;5.40;99.90;;;;;;5417462;26;19929;-79
2024/04/24 02:23:39;;;;;;;;;;;5.40;99.90;;;;;;5421293;26;19998;-79
2024/04/24 02:26:06;;;;;;;;;;;5.40;99.90;;;;;;5415369;26;19936;-79
2024/04/24 02:28:36;;;;;;;;;;;5.40;99.90;;;;;;5421545;26;19929;-79
2024/04/24 02:31:08;;;;;;;;;;;5.40;99.90;;;;;;5436817;26;19965;-79
2024/04/24 02:33:35;;;;;;;;;;;5.40;99.90;;;;;;5420787;26;20307;-79
2024/04/24 02:36:05;;;;;;;;;;;5.40;99.90;;;;;;5444536;26;19936;-79
2024/04/24 02:38:35;;;;;;;;;;;5.20;99.90;;;;;;5437078;26;19929;-79
2024/04/24 02:41:04;;;;;;;;;;;5.20;99.90;;;;;;5412762;26;20242;-79
2024/04/24 02:43:32;;;;;;;;;;;5.20;99.90;;;;;;5446346;26;20254;-79
2024/04/24 02:46:02;;;;;;;;;;;5.20;99.90;;;;;;5438984;26;19929;-78
2024/04/24 02:48:35;;;;;;;;;;;5.20;99.90;;;;;;5396275;26;20353;-79
2024/04/24 02:51:04;;;;;;;;;;;5.10;99.90;;;;;;5448127;26;19933;-78
2024/04/24 02:53:35;;;;;;;;;;;5.10;99.90;;;;;;5417311;26;19929;-79
2024/04/24 02:56:01;;;;;;;;;;;5.10;99.90;;;;;;5418552;26;20235;-80
2024/04/24 02:58:34;;;;;;;;;;;5.10;99.90;;;;;;5438201;26;20345;-79
2024/04/24 03:01:14;;;;;;;;;;;5.10;99.90;;;;;;5429342;26;20019;-80
2024/04/24 03:03:41;;;;;;;;;;;5.10;99.90;;;;;;5432078;26;19937;-79
2024/04/24 03:06:11;;;;;;;;;;;5.10;99.90;;;;;;5440396;26;19943;-79
2024/04/24 03:08:40;;;;;;;;;;;5.10;99.90;;;;;;5485387;26;20360;-79
2024/04/24 03:11:06;;;;;;;;;;;5.10;99.90;;;;;;5418039;26;19998;-79
2024/04/24 03:13:38;;;;;;;;;;;5.10;99.90;;;;;;5449993;26;20343;-79
2024/04/24 03:16:05;;;;;;;;;;;5.00;99.90;;;;;;5455799;26;20360;-79
2024/04/24 03:18:32;;;;;;;;;;;5.00;99.90;;;;;;5451835;26;19954;-80
2024/04/24 03:20:58;;;;;;;;;;;5.10;99.90;;;;;;5430988;26;19935;-79
2024/04/24 03:23:25;;;;;;;;;;;5.00;99.90;;;;;;5455589;26;19936;-80
2024/04/24 03:25:52;;;;;;;;;;;5.00;99.90;;;;;;5453377;26;19928;-79
2024/04/24 03:28:19;;;;;;;;;;;5.00;99.90;;;;;;5420660;26;19994;-79
2024/04/24 03:30:52;;;;;;;;;;;5.00;99.90;;;;;;5417935;26;19929;-78
2024/04/24 03:33:21;;;;;;;;;;;4.90;99.90;;;;;;5422719;26;19975;-79
2024/04/24 03:35:49;;;;;;;;;;;5.00;99.90;;;;;;5454091;26;20357;-79
2024/04/24 03:38:18;;;;;;;;;;;5.00;99.90;;;;;;5453776;26;19929;-79
2024/04/24 03:40:48;;;;;;;;;;;5.00;99.90;;;;;;5450123;26;20010;-79
2024/04/24 03:43:16;;;;;;;;;;;5.10;99.90;;;;;;5417874;26;19941;-80
2024/04/24 03:45:43;;;;;;;;;;;5.00;99.90;;;;;;5418334;26;19929;-79
2024/04/24 03:48:13;;;;;;;;;;;5.10;99.90;;;;;;5418350;26;19937;-79
2024/04/24 03:50:40;;;;;;;;;;;5.10;99.90;;;;;;5429588;26;19961;-79
2024/04/24 03:53:07;;;;;;;;;;;5.20;99.90;;;;;;5454812;26;19947;-79
2024/04/24 03:55:34;;;;;;;;;;;5.20;99.90;;;;;;5448502;26;19940;-79
2024/04/24 03:58:01;;;;;;;;;;;5.20;99.90;;;;;;5418007;26;20368;-79
2024/04/24 04:00:33;;;;;;;;;;;5.20;99.90;;;;;;5424897;26;19929;-81
2024/04/24 04:03:00;;;;;;;;;;;5.10;99.90;;;;;;5444401;26;19936;-79
2024/04/24 04:05:26;;;;;;;;;;;5.30;99.90;;;;;;5421394;26;19957;-79
2024/04/24 04:07:59;;;;;;;;;;;5.30;99.90;;;;;;5453270;26;19929;-79
2024/04/24 04:10:29;;;;;;;;;;;5.10;99.90;;;;;;5453274;26;19960;-79
2024/04/24 04:12:57;;;;;;;;;;;5.30;99.90;;;;;;5484675;26;19936;-79
2024/04/24 04:15:23;;;;;;;;;;;5.20;99.90;;;;;;5415932;26;19936;-79
2024/04/24 04:17:51;;;;;;;;;;;5.20;99.90;;;;;;5453109;26;19928;-79
2024/04/24 04:20:17;;;;;;;;;;;5.30;99.90;;;;;;5453505;26;19933;-80
2024/04/24 04:22:47;;;;;;;;;;;5.30;99.90;;;;;;5417893;26;19929;-79
2024/04/24 04:25:13;;;;;;;;;;;5.20;99.90;;;;;;5388147;26;19937;-79
2024/04/24 04:27:43;;;;;;;;;;;5.20;99.90;;;;;;5388795;26;19937;-79
2024/04/24 04:30:13;;;;;;;;;;;5.30;99.90;;;;;;5418353;26;19969;-78
2024/04/24 04:32:38;;;;;;;;;;;5.10;99.90;;;;;;5386906;26;19940;-79
2024/04/24 04:35:04;;;;;;;;;;;5.10;99.90;;;;;;5387808;26;19940;-79
2024/04/24 04:37:35;;;;;;;;;;;5.10;99.90;;;;;;5417279;26;19940;-79
2024/04/24 04:40:03;;;;;;;;;;;5.10;99.90;;;;;;5387544;26;19936;-79
2024/04/24 04:42:36;;;;;;;;;;;5.10;99.90;;;;;;5447591;26;19932;-79
2024/04/24 04:45:04;;;;;;;;;;;5.10;99.90;;;;;;5452451;26;19937;-80
2024/04/24 04:47:32;;;;;;;;;;;5.10;99.90;;;;;;5455373;26;19936;-80
2024/04/24 04:49:58;;;;;;;;;;;5.10;99.90;;;;;;5436483;26;19940;-79
2024/04/24 04:52:24;;;;;;;;;;;5.10;99.90;;;;;;5436287;26;19995;-81
2024/04/24 04:54:49;;;;;;;;;;;5.20;99.90;;;;;;5413305;26;19929;-79
2024/04/24 04:57:17;;;;;;;;;;;5.10;99.90;;;;;;5448109;26;19929;-80
2024/04/24 04:59:48;;;;;;;;;;;5.00;99.90;;;;;;5434831;26;19929;-79
2024/04/24 05:02:14;;;;;;;;;;;5.00;99.90;;;;;;5418943;26;19929;-79
2024/04/24 05:04:40;;;;;;;;;;;5.10;99.90;;;;;;5475112;26;20265;-79
2024/04/24 05:07:06;;;;;;;;;;;5.10;99.90;;;;;;5423404;26;20356;-79
2024/04/24 05:09:32;;;;;;;;;;;5.20;99.90;;;;;;5454260;26;19935;-78
2024/04/24 05:11:58;;;;;;;;;;;5.10;99.90;;;;;;5423667;26;19936;-79
2024/04/24 05:14:24;;;;;;;;;;;5.20;99.90;;;;;;5452737;26;19928;-78
2024/04/24 05:16:49;;;;;;;;;;;5.00;99.90;;;;;;5416030;26;20356;-78
2024/04/24 05:19:15;;;;;;;;;;;5.10;99.90;;;;;;5452234;26;20255;-79
2024/04/24 05:21:41;;;;;;;;;;;5.10;99.90;;;;;;5483972;26;19935;-79
2024/04/24 05:24:09;;;;;;;;;;;5.10;99.90;;;;;;5453752;26;19937;-79
2024/04/24 05:29:19;;;;;;;;;;;5.20;99.90;;;;;;5464822;26;19961;-78
2024/04/24 05:31:45;;;;;;;;;;;5.20;99.90;;;;;;5445692;26;19929;-79
2024/04/24 05:34:10;;;;;;;;;;;5.30;99.90;;;;;;5476199;26;20260;-79
2024/04/24 05:36:37;;;;;;;;;;;5.30;99.90;;;;;;5415970;26;20344;-78
2024/04/24 05:39:04;;;;;;;;;;;5.30;99.90;;;;;;5415506;26;19937;-79
2024/04/24 05:41:31;;;;;;;;;;;5.30;99.90;;;;;;5429539;26;19988;-79
2024/04/24 05:43:59;;;;;;;;;;;5.30;99.90;;;;;;5482365;26;19928;-79
2024/04/24 05:46:26;;;;;;;;;;;5.40;99.90;;;;;;5422126;26;20340;-79
2024/04/24 05:48:53;;;;;;;;;;;5.40;99.90;;;;;;5422372;26;19928;-78
2024/04/24 05:51:20;;;;;;;;;;;5.40;99.90;;;;;;5452048;26;19929;-79
2024/04/24 05:53:47;;;;;;;;;;;5.40;99.90;;;;;;5451932;26;20418;-79
2024/04/24 05:56:14;;;;;;;;;;;5.40;99.90;;;;;;5439493;26;19929;-78
2024/04/24 05:58:43;;;;;;;;;;;5.40;99.90;;;;;;5454291;26;19952;-79
2024/04/24 06:01:10;;;;;;;;;;;5.40;99.90;;;;;;5477676;26;19939;-80
2024/04/24 06:03:37;;;;;;;;;;;5.40;99.90;;;;;;5422395;26;19940;-78
2024/04/24 06:06:04;;;;;;;;;;;5.40;99.90;;;;;;5421322;26;19932;-79
2024/04/24 06:08:30;;;;;;;;;;;5.40;99.90;;;;;;5451784;26;19929;-78
2024/04/24 06:10:57;;;;;;;;;;;5.50;99.90;;;;;;5445483;26;19933;-79
2024/04/24 06:13:24;;;;;;;;;;;5.40;99.90;;;;;;5446115;26;19940;-79
2024/04/24 06:15:51;;;;;;;;;;;5.30;99.90;;;;;;5421310;26;19933;-80
2024/04/24 06:18:18;;;;;;;;;;;5.30;99.90;;;;;;5416394;26;19936;-79
2024/04/24 06:20:43;;;;;;;;;;;5.30;99.90;;;;;;5413204;26;19938;-80
2024/04/24 06:23:11;;;;;;;;;;;5.40;99.90;;;;;;5430245;26;19929;-79
2024/04/24 06:25:38;;;;;;;;;;;5.30;99.90;;;;;;5391610;26;20317;-80
2024/04/24 06:28:06;;;;;;;;;;;5.30;99.90;;;;;;5412960;26;19938;-80
2024/04/24 06:30:33;;;;;;;;;;;5.20;99.90;;;;;;5413829;26;19929;-80
2024/04/24 06:33:01;;;;;;;;;;;5.20;99.90;;;;;;5413136;26;19934;-79
2024/04/24 06:35:54;;;;;;;;;;;5.20;99.90;;;;;;5446862;26;19937;-80
2024/04/24 06:38:24;;;;;;;;;;;5.30;99.90;;;;;;5419651;26;20308;-79
2024/04/24 06:40:51;;;;;;;;;;;5.40;99.90;;;;;;5389037;26;19929;-80
2024/04/24 06:43:20;;;;;;;;;;;5.50;99.90;;;;;;5418770;26;19929;-80
2024/04/24 06:45:47;;;;;;;;;;;5.40;99.90;;;;;;5448116;26;19994;-80
2024/04/24 06:48:17;;;;;;;;;;;5.40;99.90;;;;;;5389259;26;20348;-79
2024/04/24 06:50:54;;;;;;;;;;;;;;;;;;;;;
2024/04/24 06:53:31;;;;;;;;;;;5.50;99.90;;;;;;5410358;26;19944;-80
2024/04/24 06:56:01;;;;;;;;;;;5.50;99.90;;;;;;5413139;26;20257;-79
2024/04/24 06:58:29;;;;;;;;;;;5.50;99.90;;;;;;5443853;26;19929;-79
2024/04/24 07:00:58;;;;;;;;;;;5.60;99.90;;;;;;5471344;26;19929;-79
2024/04/24 07:03:35;;;;;;;;;;;;;;;;;;;;;
2024/04/24 07:06:04;;;;;;;;;;;5.60;99.90;;;;;;5446652;26;19941;-79
2024/04/24 07:08:33;;;;;;;;;;;5.60;99.90;;;;;;5418706;26;19941;-79
2024/04/24 07:11:00;;;;;;;;;;;5.60;99.90;;;;;;5413642;26;19937;-80
2024/04/24 07:13:27;;;;;;;;;;;5.70;99.90;;;;;;5419709;26;19929;-79
2024/04/24 07:15:55;;;;;;;;;;;5.70;99.90;;;;;;5389190;26;20414;-79
2024/04/24 07:18:21;;;;;;;;;;;5.90;99.90;;;;;;5477579;26;20337;-79
2024/04/24 07:20:47;;;;;;;;;;;6.00;99.90;;;;;;5413106;26;19937;-80
2024/04/24 07:23:15;;;;;;;;;;;6.00;99.90;;;;;;5392055;26;20431;-79
2024/04/24 07:25:43;;;;;;;;;;;6.10;99.90;;;;;;5478844;26;19936;-79
2024/04/24 07:28:10;;;;;;;;;;;6.20;99.90;;;;;;5443111;26;19978;-79
2024/04/24 07:30:39;;;;;;;;;;;6.20;99.90;;;;;;5455382;26;19961;-79
2024/04/24 07:33:05;;;;;;;;;;;6.20;99.90;;;;;;5468578;26;19929;-79
2024/04/24 07:35:32;;;;;;;;;;;6.20;99.90;;;;;;5448601;26;19930;-79
2024/04/24 07:37:59;;;;;;;;;;;6.10;99.90;;;;;;5385769;26;19957;-79
2024/04/24 07:40:26;;;;;;;;;;;6.20;99.90;;;;;;5441512;26;20362;-79
2024/04/24 07:42:53;;;;;;;;;;;6.10;99.90;;;;;;5395015;26;19995;-78
2024/04/24 07:45:20;;;;;;;;;;;6.00;99.90;;;;;;5397738;26;19929;-78
2024/04/24 07:47:47;;;;;;;;;;;5.70;99.90;;;;;;5442484;26;19980;-79
2024/04/24 07:50:14;;;;;;;;;;;5.90;99.90;;;;;;5472408;26;19964;-77
2024/04/24 07:52:43;;;;;;;;;;;5.60;99.90;;;;;;5447032;26;20253;-78
2024/04/24 07:55:10;;;;;;;;;;;5.40;99.90;;;;;;5441706;26;19933;-78
2024/04/24 07:57:37;;;;;;;;;;;5.40;99.90;;;;;;5418854;26;19936;-79
2024/04/24 08:00:05;;;;;;;;;;;5.30;99.90;;;;;;5420677;26;20374;-80
2024/04/24 08:02:34;;;;;;;;;;;5.30;99.90;;;;;;5413072;26;19937;-80
2024/04/24 08:05:01;;;;;;;;;;;5.30;99.90;;;;;;5354154;26;19966;-79
2024/04/24 08:07:28;;;;;;;;;;;5.30;99.90;;;;;;5426025;26;19936;-78
2024/04/24 08:09:55;;;;;;;;;;;5.30;99.90;;;;;;5477525;26;19935;-79
2024/04/24 08:12:22;;;;;;;;;;;5.40;99.90;;;;;;5447932;26;20243;-79
2024/04/24 08:14:49;;;;;;;;;;;5.30;99.90;;;;;;5478216;26;20696;-79
2024/04/24 08:17:15;;;;;;;;;;;5.40;99.90;;;;;;5459505;26;19999;-79
2024/04/24 08:19:42;;;;;;;;;;;5.40;99.90;;;;;;5441938;26;20342;-79
2024/04/24 08:22:09;;;;;;;;;;;5.50;99.90;;;;;;5442345;26;19936;-79
2024/04/24 08:24:36;;;;;;;;;;;5.60;99.90;;;;;;5382362;26;19979;-79
2024/04/24 08:27:03;;;;;;;;;;;5.80;99.90;;;;;;5399921;26;19996;-79
2024/04/24 08:29:30;;;;;;;;;;;5.90;99.90;;;;;;5411851;26;19929;-79
2024/04/24 08:32:01;;;;;;;;;;;5.90;99.90;;;;;;5381851;26;19937;-79
2024/04/24 08:34:28;;;;;;;;;;;6.00;99.90;;;;;;5352651;26;19933;-78
2024/04/24 08:36:55;;;;;;;;;;;6.00;99.90;;;;;;5353208;26;19930;-80
2024/04/24 08:39:22;;;;;;;;;;;6.20;99.90;;;;;;5410372;26;19933;-80
2024/04/24 08:42:12;;;;;;;;;;;6.20;99.90;;;;;;5411227;26;19929;-80
2024/04/24 08:44:40;;;;;;;;;;;6.20;99.90;;;;;;5381802;26;19929;-80
2024/04/24 08:47:07;;;;;;;;;;;6.30;99.90;;;;;;5441533;26;19992;-80
2024/04/24 08:49:37;;;;;;;;;;;6.30;99.90;;;;;;5412365;26;19934;-79
2024/04/24 08:52:04;;;;;;;;;;;6.30;99.90;;;;;;5411239;26;20354;-80
2024/04/24 08:54:32;;;;;;;;;;;6.40;99.90;;;;;;5381758;26;19929;-79
2024/04/24 08:56:59;;;;;;;;;;;6.40;99.90;;;;;;5411052;26;20412;-79
2024/04/24 08:59:31;;;;;;;;;;;6.40;99.90;;;;;;5411282;26;19962;-80
2024/04/24 09:02:08;;;;;;;;;;;6.50;99.90;;;;;;5372903;26;19936;-79
2024/04/24 09:04:35;;;;;;;;;;;6.60;99.90;;;;;;5416469;26;19936;-79
2024/04/24 09:07:02;;;;;;;;;;;6.60;99.90;;;;;;5446852;26;19991;-79
2024/04/24 09:09:29;;;;;;;;;;;6.60;99.90;;;;;;5381129;26;19938;-79
2024/04/24 09:12:03;;;;;;;;;;;6.60;99.90;;;;;;5464233;26;19929;-79
2024/04/24 09:14:32;;;;;;;;;;;6.60;99.90;;;;;;5477071;26;20003;-79
2024/04/24 09:17:00;;;;;;;;;;;6.80;99.90;;;;;;5459196;26;19996;-79
2024/04/24 09:19:27;;;;;;;;;;;6.80;99.90;;;;;;5441082;26;20488;-79
2024/04/24 09:21:54;;;;;;;;;;;6.80;99.90;;;;;;5411220;26;19941;-80
2024/04/24 09:24:21;;;;;;;;;;;6.80;99.90;;;;;;5440877;26;19944;-79
2024/04/24 09:26:47;;;;;;;;;;;6.80;99.90;;;;;;5440552;26;19995;-80
2024/04/24 09:29:14;;;;;;;;;;;6.80;99.90;;;;;;5440402;26;19930;-80
2024/04/24 09:31:40;;;;;;;;;;;6.80;99.90;;;;;;5414391;26;19940;-79
2024/04/24 09:34:09;;;;;;;;;;;6.80;99.90;;;;;;5444087;26;20613;-79
2024/04/24 09:36:37;;;;;;;;;;;6.80;99.90;;;;;;5409971;26;19969;-79
2024/04/24 09:39:06;;;;;;;;;;;6.90;99.90;;;;;;5410161;26;19933;-80
2024/04/24 09:41:36;;;;;;;;;;;6.90;99.90;;;;;;5455576;26;20642;-80
2024/04/24 09:44:03;;;;;;;;;;;6.90;99.90;;;;;;5425350;26;19940;-80
2024/04/24 09:46:30;;;;;;;;;;;6.90;99.90;;;;;;5483005;26;19928;-79
2024/04/24 09:48:57;;;;;;;;;;;7.00;99.90;;;;;;5391828;26;19994;-79
2024/04/24 09:51:23;;;;;;;;;;;7.00;99.90;;;;;;5417808;26;19937;-78
2024/04/24 09:53:50;;;;;;;;;;;7.00;99.90;;;;;;5390246;26;19990;-79
2024/04/24 09:56:23;;;;;;;;;;;7.10;99.90;;;;;;5419440;26;19940;-79
2024/04/24 09:58:50;;;;;;;;;;;7.20;99.90;;;;;;5419676;26;19936;-79
2024/04/24 10:01:16;;;;;;;;;;;7.30;99.90;;;;;;5419671;26;19937;-79
2024/04/24 10:03:43;;;;;;;;;;;7.20;99.90;;;;;;5419674;26;19941;-79
2024/04/24 10:06:11;;;;;;;;;;;7.20;99.90;;;;;;5413263;26;19936;-79
2024/04/24 10:08:38;;;;;;;;;;;7.20;99.90;;;;;;5410851;26;19940;-79
2024/04/24 10:11:05;;;;;;;;;;;7.20;99.90;;;;;;5447874;26;19937;-78
2024/04/24 10:13:37;;;;;;;;;;;7.20;99.90;;;;;;5437960;26;19928;-79
2024/04/24 10:16:04;;;;;;;;;;;7.20;99.90;;;;;;5384616;26;19957;-79
2024/04/24 10:18:33;;;;;;;;;;;7.20;99.90;;;;;;5430839;26;19937;-79
2024/04/24 10:21:03;;;;;;;;;;;7.10;99.90;;;;;;5419854;26;19936;-79
2024/04/24 10:23:30;;;;;;;;;;;7.20;99.90;;;;;;5447554;26;19929;-80
2024/04/24 10:25:56;;;;;;;;;;;7.10;99.90;;;;;;5395160;26;19929;-79
2024/04/24 10:28:24;;;;;;;;;;;7.10;99.90;;;;;;5449399;26;19941;-79
2024/04/24 10:30:53;;;;;;;;;;;7.10;99.90;;;;;;5449049;26;19936;-79
2024/04/24 10:33:19;;;;;;;;;;;7.00;99.90;;;;;;5455656;26;19936;-79
2024/04/24 10:35:45;;;;;;;;;;;6.80;99.90;;;;;;5448991;26;19936;-79
2024/04/24 10:38:13;;;;;;;;;;;6.70;99.90;;;;;;5427274;26;19929;-78
2024/04/24 10:40:39;;;;;;;;;;;6.70;99.90;;;;;;5388775;26;19929;-78
2024/04/24 10:43:07;;;;;;;;;;;6.60;99.90;;;;;;5448235;26;19936;-78
2024/04/24 10:45:37;;;;;;;;;;;6.60;99.90;;;;;;5475635;26;19928;-78
2024/04/24 10:48:04;;;;;;;;;;;6.70;99.90;;;;;;5478685;26;19940;-78
2024/04/24 10:50:33;;;;;;;;;;;6.80;99.90;;;;;;5425965;26;19964;-78
2024/04/24 10:53:01;;;;;;;;;;;6.70;99.90;;;;;;5419761;26;19936;-78
2024/04/24 10:55:28;;;;;;;;;;;6.70;99.90;;;;;;5454736;26;19932;-77
2024/04/24 10:57:55;;;;;;;;;;;6.80;99.90;;;;;;5454291;26;19928;-77
2024/04/24 11:00:22;;;;;;;;;;;7.00;99.90;;;;;;5436609;26;19929;-77
2024/04/24 11:02:49;;;;;;;;;;;7.20;99.90;;;;;;5449454;26;20288;-77
2024/04/24 11:05:21;;;;;;;;;;;7.30;99.90;;;;;;5476187;26;19936;-77
2024/04/24 11:08:01;;;;;;;;;;;7.40;99.90;;;;;;5446824;26;19929;-77
2024/04/24 11:10:28;;;;;;;;;;;7.80;99.90;;;;;;5417276;26;19936;-76
2024/04/24 11:12:55;;;;;;;;;;;8.00;99.90;;;;;;5443965;26;19953;-77
2024/04/24 11:15:23;;;;;;;;;;;7.90;99.90;;;;;;5447005;26;19929;-78
2024/04/24 11:17:53;;;;;;;;;;;8.00;99.90;;;;;;5406283;26;19956;-78
2024/04/24 11:20:21;;;;;;;;;;;8.20;99.90;;;;;;5454017;26;20039;-78
2024/04/24 11:22:48;;;;;;;;;;;8.60;99.90;;;;;;5476698;26;19929;-79
2024/04/24 11:25:16;;;;;;;;;;;8.90;99.90;;;;;;5417311;26;20367;-79
2024/04/24 11:27:46;;;;;;;;;;;9.00;99.90;;;;;;5418123;26;19935;-79
2024/04/24 11:30:13;;;;;;;;;;;9.00;99.90;;;;;;5449813;26;19943;-79
2024/04/24 11:32:41;;;;;;;;;;;8.90;99.90;;;;;;5419652;26;19935;-80
2024/04/24 11:35:08;;;;;;;;;;;8.80;99.90;;;;;;5431836;26;19929;-77
2024/04/24 11:37:37;;;;;;;;;;;8.30;99.90;;;;;;5454188;26;19929;-79
2024/04/24 11:40:08;;;;;;;;;;;8.00;99.90;;;;;;5420288;26;19929;-79
2024/04/24 11:42:44;;;;;;;;;;;7.60;99.90;;;;;;5442347;26;20365;-78
2024/04/24 11:45:10;;;;;;;;;;;7.30;99.90;;;;;;5417156;26;19937;-77
2024/04/24 11:47:36;;;;;;;;;;;7.00;99.90;;;;;;5462983;26;20252;-79
2024/04/24 11:50:03;;;;;;;;;;;6.90;99.90;;;;;;5448332;26;19929;-78
2024/04/24 11:52:42;;;;;;;;;;;6.80;99.90;;;;;;5417246;26;19929;-78
2024/04/24 11:55:07;;;;;;;;;;;6.90;99.90;;;;;;5439669;26;19995;-79
2024/04/24 11:57:37;;;;;;;;;;;6.90;99.90;;;;;;5453045;26;19948;-79
2024/04/24 12:00:04;;;;;;;;;;;7.00;99.90;;;;;;5453473;26;20011;-78
2024/04/24 12:02:31;;;;;;;;;;;7.00;99.90;;;;;;5483449;26;20418;-79
2024/04/24 12:05:01;;;;;;;;;;;7.10;99.90;;;;;;5451099;26;19936;-78
2024/04/24 12:07:28;;;;;;;;;;;7.40;99.90;;;;;;5452706;26;19961;-79
2024/04/24 12:09:55;;;;;;;;;;;7.60;99.90;;;;;;5393560;26;19939;-78
2024/04/24 12:12:22;;;;;;;;;;;7.90;99.90;;;;;;5416836;26;20357;-78
2024/04/24 12:14:55;;;;;;;;;;;8.10;99.90;;;;;;5447510;26;19936;-78
2024/04/24 12:17:22;;;;;;;;;;;8.20;99.90;;;;;;5416835;26;19929;-79
2024/04/24 12:19:47;;;;;;;;;;;8.30;99.90;;;;;;5387613;26;20257;-78
2024/04/24 12:22:13;;;;;;;;;;;8.30;99.90;;;;;;5419301;26;19928;-76
2024/04/24 12:24:40;;;;;;;;;;;8.40;99.90;;;;;;5450211;26;19961;-76
2024/04/24 12:27:07;;;;;;;;;;;8.10;99.90;;;;;;5481971;26;20360;-78
2024/04/24 12:29:32;;;;;;;;;;;8.10;99.90;;;;;;5401457;26;19936;-78
2024/04/24 12:31:58;;;;;;;;;;;8.00;99.90;;;;;;5444872;26;19929;-78
2024/04/24 12:34:25;;;;;;;;;;;8.10;99.90;;;;;;5452125;26;20241;-77
2024/04/24 12:36:54;;;;;;;;;;;8.10;99.90;;;;;;5433420;26;20278;-78
2024/04/24 12:39:21;;;;;;;;;;;8.20;99.90;;;;;;5424926;26;20248;-78
2024/04/24 12:41:47;;;;;;;;;;;8.40;99.90;;;;;;5494735;26;19937;-79
2024/04/24 12:44:14;;;;;;;;;;;8.40;99.90;;;;;;5445105;26;19929;-79
2024/04/24 12:46:40;;;;;;;;;;;8.20;99.90;;;;;;5469845;26;19940;-79
2024/04/24 12:49:07;;;;;;;;;;;8.40;99.90;;;;;;5520628;26;19993;-79
2024/04/24 12:51:36;;;;;;;;;;;8.70;99.90;;;;;;5459852;26;19960;-79
2024/04/24 12:54:13;;;;;;;;;;;8.80;99.90;;;;;;5426571;26;19999;-81
2024/04/24 12:56:41;;;;;;;;;;;9.10;99.90;;;;;;5417778;26;19999;-80
2024/04/24 12:59:26;;;;;;;;;;;;;;;;;;;;;
2024/04/24 13:01:56;;;;;;;;;;;9.10;99.90;;;;;;5471577;26;19936;-79
2024/04/24 13:04:23;;;;;;;;;;;9.10;99.90;;;;;;5463588;26;19967;-78
2024/04/24 13:06:48;;;;;;;;;;;9.00;99.90;;;;;;5453044;26;19939;-79
2024/04/24 13:09:16;;;;;;;;;;;9.40;99.90;;;;;;5423821;26;19936;-79
2024/04/24 13:11:46;;;;;;;;;;;9.70;99.90;;;;;;5417243;26;20261;-79
2024/04/24 13:14:13;;;;;;;;;;;9.70;99.90;;;;;;5417187;26;19937;-79
2024/04/24 13:16:44;;;;;;;;;;;9.50;99.90;;;;;;5387380;26;19937;-79
2024/04/24 13:19:14;;;;;;;;;;;9.20;99.90;;;;;;5482845;26;20323;-79
2024/04/24 13:21:40;;;;;;;;;;;9.10;99.90;;;;;;5481259;26;19997;-79
2024/04/24 13:24:10;;;;;;;;;;;9.00;99.90;;;;;;5452010;26;19935;-79
2024/04/24 13:26:37;;;;;;;;;;;9.30;99.90;;;;;;5451080;26;20458;-79
2024/04/24 13:29:04;;;;;;;;;;;9.30;99.90;;;;;;5483053;26;19928;-79
2024/04/24 13:31:51;;;;;;;;;;;9.20;99.90;;;;;;5440884;26;19940;-79
2024/04/24 13:34:41;;;;;;;;;;;9.40;99.90;;;;;;5416032;26;20245;-79
2024/04/24 13:37:08;;;;;;;;;;;9.80;99.90;;;;;;5404606;26;19957;-79
2024/04/24 13:39:36;;;;;;;;;;;10.00;99.90;;;;;;5460692;26;19935;-79
2024/04/24 13:42:06;;;;;;;;;;;10.00;99.90;;;;;;5458205;26;19928;-79
2024/04/24 13:44:43;;;;;;;;;;;;;;;;;;;;;
2024/04/24 13:47:19;;;;;;;;;;;9.80;99.90;;;;;;5433307;26;19936;-79
2024/04/24 13:49:49;;;;;;;;;;;9.60;99.90;;;;;;5416099;26;19933;-79
2024/04/24 13:52:19;;;;;;;;;;;9.60;99.90;;;;;;5391657;26;19953;-79
2024/04/24 13:54:56;;;;;;;;;;;9.70;99.90;;;;;;5446463;26;19994;-79
2024/04/24 13:57:27;;;;;;;;;;;9.50;99.90;;;;;;5416633;26;19929;-79
2024/04/24 13:59:55;;;;;;;;;;;10.00;99.90;;;;;;5444268;26;19995;-79
2024/04/24 14:02:22;;;;;;;;;;;10.30;99.90;;;;;;5446275;26;19929;-79
2024/04/24 14:04:49;;;;;;;;;;;10.30;99.90;;;;;;5460853;26;20002;-79
2024/04/24 14:07:16;;;;;;;;;;;10.20;99.90;;;;;;5421222;26;19935;-79
2024/04/24 14:09:45;;;;;;;;;;;10.10;99.90;;;;;;5449384;26;19970;-79
2024/04/24 14:12:15;;;;;;;;;;;10.00;99.90;;;;;;5390584;26;19995;-79
2024/04/24 14:14:49;;;;;;;;;;;10.20;99.90;;;;;;5431034;26;19937;-79
2024/04/24 14:17:29;;;;;;;;;;;10.50;99.90;;;;;;5447255;26;20252;-79
2024/04/24 14:20:09;;;;;;;;;;;10.40;99.90;;;;;;5391662;26;19964;-80
2024/04/24 14:22:35;;;;;;;;;;;10.20;99.90;;;;;;5422356;26;19935;-79
2024/04/24 14:25:22;;;;;;;;;;;10.00;99.90;;;;;;5421822;26;19932;-79
2024/04/24 14:27:54;;;;;;;;;;;9.60;99.90;;;;;;5476702;26;19929;-79
2024/04/24 14:30:23;;;;;;;;;;;9.00;99.90;;;;;;5410604;26;19929;-78
2024/04/24 14:32:50;;;;;;;;;;;8.90;99.90;;;;;;5453390;26;19936;-78
2024/04/24 14:35:18;;;;;;;;;;;8.70;99.90;;;;;;5481339;26;19928;-79
2024/04/24 14:37:47;;;;;;;;;;;8.40;99.90;;;;;;5419917;26;20778;-79
2024/04/24 14:40:14;;;;;;;;;;;8.20;99.90;;;;;;5429769;26;20342;-79
2024/04/24 14:42:43;;;;;;;;;;;8.20;99.90;;;;;;5441902;26;19929;-79
2024/04/24 14:45:13;;;;;;;;;;;7.80;99.90;;;;;;5451950;26;19928;-79